Terminal Aerodrome Forecast
Issued by NWS Bismarck, ND

Home | Current Version | Previous Version | Graphics & Text | Print | Product List | Glossary On
Versions: 1 2 3 4 5 6 7 8 9 10 11 12 13 14 15
997
FTUS43 KBIS 180926 AAC
TAFISN
TAF AMD
KISN 180926Z 1809/1906 29017G25KT P6SM FEW050 SCT250 WS020/29035KT
     FM181300 28013KT P6SM FEW250 WS020/29035KT
     FM181600 28016G23KT P6SM FEW130 FEW250
     FM182300 26008KT P6SM FEW100 FEW250=

USA.gov is the U.S. government's official web portal to all federal, state and local government web resources and services.